sensor_id;sensor_type;location;lat;lon;timestamp;pressure;altitude;pressure_sealevel;temperature;humidity
8717;BME280;4395;48.554;8.820;2023-01-25T00:01:39;97350.47;;;0.79;100.00
8717;BME280;4395;48.554;8.820;2023-01-25T00:03:42;97347.09;;;0.69;100.00
8717;BME280;4395;48.554;8.820;2023-01-25T00:05:45;97344.59;;;0.68;100.00
8717;BME280;4395;48.554;8.820;2023-01-25T00:07:48;97346.72;;;0.64;100.00
8717;BME280;4395;48.554;8.820;2023-01-25T00:09:50;97334.53;;;0.71;100.00
8717;BME280;4395;48.554;8.820;2023-01-25T00:11:53;97305.88;;;0.41;100.00
8717;BME280;4395;48.554;8.820;2023-01-25T00:13:59;97296.72;;;0.53;100.00
8717;BME280;4395;48.554;8.820;2023-01-25T00:16:03;97313.97;;;0.65;100.00
8717;BME280;4395;48.554;8.820;2023-01-25T00:18:06;97327.84;;;0.59;100.00
8717;BME280;4395;48.554;8.820;2023-01-25T00:20:10;97327.06;;;0.67;100.00
8717;BME280;4395;48.554;8.820;2023-01-25T00:22:12;97340.53;;;0.81;100.00
8717;BME280;4395;48.554;8.820;2023-01-25T00:24:15;97330.47;;;0.85;100.00
8717;BME280;4395;48.554;8.820;2023-01-25T00:26:19;97326.41;;;0.99;100.00
8717;BME280;4395;48.554;8.820;2023-01-25T00:28:22;97302.16;;;0.77;100.00
8717;BME280;4395;48.554;8.820;2023-01-25T00:30:26;97314.34;;;0.70;100.00
8717;BME280;4395;48.554;8.820;2023-01-25T00:32:47;97322.50;;;0.77;100.00
8717;BME280;4395;48.554;8.820;2023-01-25T00:34:51;97301.41;;;0.93;100.00
8717;BME280;4395;48.554;8.820;2023-01-25T00:36:55;97304.03;;;0.93;100.00
8717;BME280;4395;48.554;8.820;2023-01-25T00:38:58;97311.94;;;1.19;100.00
8717;BME280;4395;48.554;8.820;2023-01-25T00:41:01;97299.22;;;1.31;100.00
8717;BME280;4395;48.554;8.820;2023-01-25T00:43:04;97235.00;;;0.78;100.00
8717;BME280;4395;48.554;8.820;2023-01-25T00:45:10;97310.28;;;1.18;100.00
8717;BME280;4395;48.554;8.820;2023-01-25T00:47:14;97302.56;;;1.33;100.00
8717;BME280;4395;48.554;8.820;2023-01-25T00:49:19;97304.06;;;1.43;100.00
8717;BME280;4395;48.554;8.820;2023-01-25T00:51:23;97309.25;;;1.53;100.00
8717;BME280;4395;48.554;8.820;2023-01-25T00:53:26;97310.38;;;1.50;100.00
8717;BME280;4395;48.554;8.820;2023-01-25T00:55:29;97144.34;;;0.34;100.00
8717;BME280;4395;48.554;8.820;2023-01-25T00:57:31;97293.41;;;1.19;100.00
8717;BME280;4395;48.554;8.820;2023-01-25T00:59:34;97299.94;;;1.41;100.00
8717;BME280;4395;48.554;8.820;2023-01-25T01:01:39;97305.06;;;1.42;100.00
8717;BME280;4395;48.554;8.820;2023-01-25T01:03:43;97296.50;;;1.06;100.00
8717;BME280;4395;48.554;8.820;2023-01-25T01:05:47;97301.84;;;1.22;100.00
8717;BME280;4395;48.554;8.820;2023-01-25T01:07:50;97243.84;;;1.03;100.00
8717;BME280;4395;48.554;8.820;2023-01-25T01:09:52;97270.97;;;0.97;100.00
8717;BME280;4395;48.554;8.820;2023-01-25T01:11:58;97302.06;;;0.95;100.00
8717;BME280;4395;48.554;8.820;2023-01-25T01:14:01;97295.31;;;1.01;100.00
8717;BME280;4395;48.554;8.820;2023-01-25T01:16:07;97297.91;;;0.92;100.00
8717;BME280;4395;48.554;8.820;2023-01-25T01:18:12;97292.66;;;1.01;100.00
8717;BME280;4395;48.554;8.820;2023-01-25T01:20:16;97256.19;;;0.86;100.00
8717;BME280;4395;48.554;8.820;2023-01-25T01:22:19;97293.59;;;1.25;100.00
8717;BME280;4395;48.554;8.820;2023-01-25T01:24:22;97300.38;;;1.28;100.00
8717;BME280;4395;48.554;8.820;2023-01-25T01:26:25;97262.91;;;1.07;100.00
8717;BME280;4395;48.554;8.820;2023-01-25T01:28:28;97274.31;;;1.07;100.00
8717;BME280;4395;48.554;8.820;2023-01-25T01:30:31;97303.69;;;1.30;100.00
8717;BME280;4395;48.554;8.820;2023-01-25T01:32:34;97303.13;;;1.10;100.00
8717;BME280;4395;48.554;8.820;2023-01-25T01:34:37;97293.09;;;0.88;100.00
8717;BME280;4395;48.554;8.820;2023-01-25T01:36:42;97302.31;;;1.10;100.00
8717;BME280;4395;48.554;8.820;2023-01-25T01:38:45;97293.72;;;1.16;100.00
8717;BME280;4395;48.554;8.820;2023-01-25T01:40:48;97258.84;;;0.86;100.00
8717;BME280;4395;48.554;8.820;2023-01-25T01:42:56;97282.25;;;1.07;100.00
8717;BME280;4395;48.554;8.820;2023-01-25T01:45:00;97279.59;;;0.99;100.00
8717;BME280;4395;48.554;8.820;2023-01-25T01:47:03;97295.81;;;0.70;100.00
8717;BME280;4395;48.554;8.820;2023-01-25T01:49:11;97297.16;;;0.74;100.00
8717;BME280;4395;48.554;8.820;2023-01-25T01:51:20;97288.03;;;1.03;100.00
8717;BME280;4395;48.554;8.820;2023-01-25T01:53:26;97248.97;;;0.96;100.00
8717;BME280;4395;48.554;8.820;2023-01-25T01:55:32;97264.56;;;1.08;100.00
8717;BME280;4395;48.554;8.820;2023-01-25T01:57:39;97237.34;;;0.89;100.00
8717;BME280;4395;48.554;8.820;2023-01-25T01:59:47;97282.16;;;1.25;100.00
8717;BME280;4395;48.554;8.820;2023-01-25T02:01:53;97290.81;;;1.35;100.00
8717;BME280;4395;48.554;8.820;2023-01-25T02:03:56;97276.84;;;1.17;100.00
8717;BME280;4395;48.554;8.820;2023-01-25T02:06:02;97289.03;;;1.02;100.00
8717;BME280;4395;48.554;8.820;2023-01-25T02:08:08;97277.28;;;1.04;100.00
8717;BME280;4395;48.554;8.820;2023-01-25T02:10:15;97286.31;;;0.85;100.00
8717;BME280;4395;48.554;8.820;2023-01-25T02:12:20;97290.22;;;1.07;100.00
8717;BME280;4395;48.554;8.820;2023-01-25T02:14:26;97287.78;;;1.22;100.00
8717;BME280;4395;48.554;8.820;2023-01-25T02:16:29;97268.16;;;0.99;100.00
8717;BME280;4395;48.554;8.820;2023-01-25T02:18:32;97199.94;;;0.42;100.00
8717;BME280;4395;48.554;8.820;2023-01-25T02:20:38;97287.69;;;0.98;100.00
8717;BME280;4395;48.554;8.820;2023-01-25T02:22:46;97256.22;;;0.94;100.00
8717;BME280;4395;48.554;8.820;2023-01-25T02:25:01;97283.97;;;1.16;100.00
8717;BME280;4395;48.554;8.820;2023-01-25T02:27:06;97285.81;;;1.32;100.00
8717;BME280;4395;48.554;8.820;2023-01-25T02:29:09;97290.66;;;1.45;100.00
8717;BME280;4395;48.554;8.820;2023-01-25T02:31:12;97288.53;;;1.56;100.00
8717;BME280;4395;48.554;8.820;2023-01-25T02:33:15;97232.81;;;1.16;100.00
8717;BME280;4395;48.554;8.820;2023-01-25T02:35:19;97255.53;;;1.35;100.00
8717;BME280;4395;48.554;8.820;2023-01-25T02:37:23;97276.78;;;1.59;100.00
8717;BME280;4395;48.554;8.820;2023-01-25T02:39:26;97283.38;;;1.47;100.00
8717;BME280;4395;48.554;8.820;2023-01-25T02:41:33;97275.41;;;1.39;100.00
8717;BME280;4395;48.554;8.820;2023-01-25T02:43:36;97268.50;;;1.54;100.00
8717;BME280;4395;48.554;8.820;2023-01-25T02:45:40;97275.31;;;1.65;100.00
8717;BME280;4395;48.554;8.820;2023-01-25T02:47:42;97266.38;;;1.74;100.00
8717;BME280;4395;48.554;8.820;2023-01-25T02:49:46;97272.50;;;1.66;100.00
8717;BME280;4395;48.554;8.820;2023-01-25T02:51:50;97258.38;;;1.41;100.00
8717;BME280;4395;48.554;8.820;2023-01-25T02:53:57;97266.31;;;1.41;100.00
8717;BME280;4395;48.554;8.820;2023-01-25T02:56:00;97275.13;;;1.58;100.00
8717;BME280;4395;48.554;8.820;2023-01-25T02:58:05;97272.31;;;1.51;100.00
8717;BME280;4395;48.554;8.820;2023-01-25T03:00:10;97110.22;;;0.57;100.00
8717;BME280;4395;48.554;8.820;2023-01-25T03:02:12;97258.06;;;1.52;100.00
8717;BME280;4395;48.554;8.820;2023-01-25T03:04:16;97233.53;;;1.42;100.00
8717;BME280;4395;48.554;8.820;2023-01-25T03:06:21;97261.47;;;1.28;100.00
8717;BME280;4395;48.554;8.820;2023-01-25T03:08:24;97271.53;;;1.17;100.00
8717;BME280;4395;48.554;8.820;2023-01-25T03:10:28;97273.47;;;1.49;100.00
8717;BME280;4395;48.554;8.820;2023-01-25T03:12:31;97239.34;;;1.46;100.00
8717;BME280;4395;48.554;8.820;2023-01-25T03:14:35;97265.84;;;1.46;100.00
8717;BME280;4395;48.554;8.820;2023-01-25T03:16:39;97266.16;;;1.43;100.00
8717;BME280;4395;48.554;8.820;2023-01-25T03:18:42;97262.38;;;1.61;100.00
8717;BME280;4395;48.554;8.820;2023-01-25T03:20:45;97264.88;;;1.71;100.00
8717;BME280;4395;48.554;8.820;2023-01-25T03:22:48;97261.91;;;1.74;100.00
8717;BME280;4395;48.554;8.820;2023-01-25T03:24:51;97251.47;;;1.73;100.00
8717;BME280;4395;48.554;8.820;2023-01-25T03:26:55;97251.78;;;1.70;100.00
8717;BME280;4395;48.554;8.820;2023-01-25T03:29:18;97255.09;;;1.72;100.00
8717;BME280;4395;48.554;8.820;2023-01-25T03:31:24;97241.69;;;1.73;100.00
8717;BME280;4395;48.554;8.820;2023-01-25T03:33:27;97245.16;;;1.66;100.00
8717;BME280;4395;48.554;8.820;2023-01-25T03:35:29;97204.56;;;1.41;100.00
8717;BME280;4395;48.554;8.820;2023-01-25T03:37:32;97243.50;;;1.73;100.00
8717;BME280;4395;48.554;8.820;2023-01-25T03:39:37;97228.94;;;1.77;100.00
8717;BME280;4395;48.554;8.820;2023-01-25T03:41:39;97226.63;;;1.82;100.00
8717;BME280;4395;48.554;8.820;2023-01-25T03:43:45;97223.94;;;1.57;100.00
8717;BME280;4395;48.554;8.820;2023-01-25T03:45:51;97238.88;;;1.75;100.00
8717;BME280;4395;48.554;8.820;2023-01-25T03:47:56;97226.94;;;1.87;100.00
8717;BME280;4395;48.554;8.820;2023-01-25T03:49:58;97224.31;;;1.87;100.00
8717;BME280;4395;48.554;8.820;2023-01-25T03:52:02;97234.91;;;1.87;100.00
8717;BME280;4395;48.554;8.820;2023-01-25T03:54:10;97220.66;;;1.80;100.00
8717;BME280;4395;48.554;8.820;2023-01-25T03:56:14;97221.63;;;1.71;100.00
8717;BME280;4395;48.554;8.820;2023-01-25T03:58:43;97132.16;;;1.08;100.00
8717;BME280;4395;48.554;8.820;2023-01-25T04:00:46;97217.50;;;1.76;100.00
8717;BME280;4395;48.554;8.820;2023-01-25T04:02:49;97226.28;;;1.85;100.00
8717;BME280;4395;48.554;8.820;2023-01-25T04:04:55;97214.84;;;1.92;100.00
8717;BME280;4395;48.554;8.820;2023-01-25T04:06:58;97216.19;;;1.97;100.00
8717;BME280;4395;48.554;8.820;2023-01-25T04:09:02;97223.13;;;1.89;100.00
8717;BME280;4395;48.554;8.820;2023-01-25T04:11:12;97222.63;;;1.78;100.00
8717;BME280;4395;48.554;8.820;2023-01-25T04:13:18;97187.84;;;1.65;100.00
8717;BME280;4395;48.554;8.820;2023-01-25T04:15:21;97217.66;;;1.58;100.00
8717;BME280;4395;48.554;8.820;2023-01-25T04:17:24;97223.94;;;1.57;100.00
8717;BME280;4395;48.554;8.820;2023-01-25T04:19:33;97236.38;;;1.73;100.00
8717;BME280;4395;48.554;8.820;2023-01-25T04:21:39;97242.84;;;1.71;100.00
8717;BME280;4395;48.554;8.820;2023-01-25T04:23:41;97226.63;;;1.74;100.00
8717;BME280;4395;48.554;8.820;2023-01-25T04:25:51;97228.59;;;1.80;100.00
8717;BME280;4395;48.554;8.820;2023-01-25T04:27:54;97222.31;;;1.89;100.00
8717;BME280;4395;48.554;8.820;2023-01-25T04:29:57;97158.69;;;1.48;100.00
8717;BME280;4395;48.554;8.820;2023-01-25T04:32:01;97214.69;;;1.70;100.00
8717;BME280;4395;48.554;8.820;2023-01-25T04:34:04;97221.81;;;1.77;100.00
8717;BME280;4395;48.554;8.820;2023-01-25T04:36:07;97218.34;;;1.85;100.00
8717;BME280;4395;48.554;8.820;2023-01-25T04:38:12;97219.47;;;1.66;100.00
8717;BME280;4395;48.554;8.820;2023-01-25T04:40:17;97219.00;;;1.79;100.00
8717;BME280;4395;48.554;8.820;2023-01-25T04:42:20;97224.63;;;1.76;100.00
8717;BME280;4395;48.554;8.820;2023-01-25T04:44:27;97220.31;;;1.75;100.00
8717;BME280;4395;48.554;8.820;2023-01-25T04:46:32;97222.97;;;1.75;100.00
8717;BME280;4395;48.554;8.820;2023-01-25T04:48:35;97220.50;;;1.81;100.00
8717;BME280;4395;48.554;8.820;2023-01-25T04:50:41;97178.56;;;1.36;100.00
8717;BME280;4395;48.554;8.820;2023-01-25T04:52:44;97208.53;;;1.53;100.00
8717;BME280;4395;48.554;8.820;2023-01-25T04:54:49;97219.66;;;1.73;100.00
8717;BME280;4395;48.554;8.820;2023-01-25T04:56:52;97212.69;;;1.55;100.00
8717;BME280;4395;48.554;8.820;2023-01-25T04:58:54;97193.97;;;1.57;100.00
8717;BME280;4395;48.554;8.820;2023-01-25T05:00:59;97222.31;;;1.81;100.00
8717;BME280;4395;48.554;8.820;2023-01-25T05:03:03;97217.19;;;1.87;100.00
8717;BME280;4395;48.554;8.820;2023-01-25T05:05:06;97215.34;;;1.96;100.00
8717;BME280;4395;48.554;8.820;2023-01-25T05:07:10;97130.38;;;1.41;100.00
8717;BME280;4395;48.554;8.820;2023-01-25T05:09:13;97206.06;;;2.00;100.00
8717;BME280;4395;48.554;8.820;2023-01-25T05:11:20;97210.88;;;1.97;100.00
8717;BME280;4395;48.554;8.820;2023-01-25T05:13:22;97172.09;;;1.63;100.00
8717;BME280;4395;48.554;8.820;2023-01-25T05:15:34;97144.78;;;1.46;100.00
8717;BME280;4395;48.554;8.820;2023-01-25T05:17:37;97203.75;;;1.81;100.00
8717;BME280;4395;48.554;8.820;2023-01-25T05:19:42;97208.22;;;1.88;100.00
8717;BME280;4395;48.554;8.820;2023-01-25T05:21:48;97202.44;;;1.85;100.00
8717;BME280;4395;48.554;8.820;2023-01-25T05:24:20;97200.59;;;1.77;100.00
8717;BME280;4395;48.554;8.820;2023-01-25T05:26:24;97183.88;;;1.69;100.00
8717;BME280;4395;48.554;8.820;2023-01-25T05:28:45;97206.56;;;1.79;100.00
8717;BME280;4395;48.554;8.820;2023-01-25T05:31:17;97200.44;;;1.87;100.00
8717;BME280;4395;48.554;8.820;2023-01-25T05:33:20;97205.41;;;1.90;100.00
8717;BME280;4395;48.554;8.820;2023-01-25T05:35:24;97203.75;;;1.81;100.00
8717;BME280;4395;48.554;8.820;2023-01-25T05:37:29;97200.44;;;1.71;100.00
8717;BME280;4395;48.554;8.820;2023-01-25T05:39:36;97208.88;;;1.74;100.00
8717;BME280;4395;48.554;8.820;2023-01-25T05:41:40;97174.25;;;1.68;100.00
8717;BME280;4395;48.554;8.820;2023-01-25T05:43:46;97202.94;;;1.88;100.00
8717;BME280;4395;48.554;8.820;2023-01-25T05:45:52;97179.56;;;1.84;100.00
8717;BME280;4395;48.554;8.820;2023-01-25T05:47:56;97170.44;;;1.86;100.00
8717;BME280;4395;48.554;8.820;2023-01-25T05:49:59;97199.94;;;2.00;100.00
8717;BME280;4395;48.554;8.820;2023-01-25T05:52:16;97193.97;;;2.06;100.00
8717;BME280;4395;48.554;8.820;2023-01-25T05:54:18;97207.22;;;2.06;100.00
8717;BME280;4395;48.554;8.820;2023-01-25T05:56:31;97204.75;;;1.72;100.00
8717;BME280;4395;48.554;8.820;2023-01-25T05:58:36;97207.06;;;1.58;100.00
8717;BME280;4395;48.554;8.820;2023-01-25T06:00:39;97208.06;;;1.82;100.00
8717;BME280;4395;48.554;8.820;2023-01-25T06:02:42;97131.03;;;1.51;100.00
8717;BME280;4395;48.554;8.820;2023-01-25T06:04:50;97181.88;;;1.71;100.00
8717;BME280;4395;48.554;8.820;2023-01-25T06:06:53;97194.13;;;1.47;100.00
8717;BME280;4395;48.554;8.820;2023-01-25T06:08:56;97186.03;;;1.73;100.00
8717;BME280;4395;48.554;8.820;2023-01-25T06:11:05;97194.97;;;1.80;100.00
8717;BME280;4395;48.554;8.820;2023-01-25T06:13:09;97187.50;;;1.92;100.00
8717;BME280;4395;48.554;8.820;2023-01-25T06:15:14;97184.03;;;2.00;100.00
8717;BME280;4395;48.554;8.820;2023-01-25T06:17:18;97191.13;;;2.07;100.00
8717;BME280;4395;48.554;8.820;2023-01-25T06:19:42;97146.09;;;1.67;100.00
8717;BME280;4395;48.554;8.820;2023-01-25T06:22:09;97186.66;;;2.00;100.00
8717;BME280;4395;48.554;8.820;2023-01-25T06:24:12;97172.09;;;1.79;100.00
8717;BME280;4395;48.554;8.820;2023-01-25T06:26:14;97190.81;;;1.94;100.00
8717;BME280;4395;48.554;8.820;2023-01-25T06:28:17;97187.34;;;1.85;100.00
8717;BME280;4395;48.554;8.820;2023-01-25T06:30:21;97185.03;;;1.90;100.00
8717;BME280;4395;48.554;8.820;2023-01-25T06:32:24;97187.34;;;1.85;100.00
8717;BME280;4395;48.554;8.820;2023-01-25T06:34:27;97188.66;;;1.89;100.00
8717;BME280;4395;48.554;8.820;2023-01-25T06:36:31;97188.84;;;1.80;100.00
8717;BME280;4395;48.554;8.820;2023-01-25T06:38:33;97187.19;;;1.79;100.00
8717;BME280;4395;48.554;8.820;2023-01-25T06:40:36;97184.69;;;1.77;100.00
8717;BME280;4395;48.554;8.820;2023-01-25T06:42:39;97187.50;;;1.84;100.00
8717;BME280;4395;48.554;8.820;2023-01-25T06:44:42;97182.53;;;1.89;100.00
8717;BME280;4395;48.554;8.820;2023-01-25T06:46:46;97188.50;;;1.83;100.00
8717;BME280;4395;48.554;8.820;2023-01-25T06:48:49;97181.88;;;1.87;100.00
8717;BME280;4395;48.554;8.820;2023-01-25T06:50:57;97196.47;;;1.91;100.00
8717;BME280;4395;48.554;8.820;2023-01-25T06:53:00;97180.88;;;1.96;100.00
8717;BME280;4395;48.554;8.820;2023-01-25T06:55:03;97187.66;;;1.99;100.00
8717;BME280;4395;48.554;8.820;2023-01-25T06:57:08;97184.84;;;2.00;100.00
8717;BME280;4395;48.554;8.820;2023-01-25T06:59:12;97188.81;;;2.04;100.00
8717;BME280;4395;48.554;8.820;2023-01-25T07:01:18;97075.41;;;1.26;100.00
8717;BME280;4395;48.554;8.820;2023-01-25T07:03:23;97189.50;;;1.98;100.00
8717;BME280;4395;48.554;8.820;2023-01-25T07:05:26;97173.91;;;2.03;100.00
8717;BME280;4395;48.554;8.820;2023-01-25T07:07:29;97175.59;;;1.88;100.00
8717;BME280;4395;48.554;8.820;2023-01-25T07:09:32;97180.88;;;1.88;100.00
8717;BME280;4395;48.554;8.820;2023-01-25T07:11:35;97176.25;;;1.90;100.00
8717;BME280;4395;48.554;8.820;2023-01-25T07:13:38;97175.91;;;1.93;100.00
8717;BME280;4395;48.554;8.820;2023-01-25T07:15:41;97148.09;;;1.81;100.00
8717;BME280;4395;48.554;8.820;2023-01-25T07:17:44;97172.28;;;1.86;100.00
8717;BME280;4395;48.554;8.820;2023-01-25T07:19:48;97131.19;;;1.74;100.00
8717;BME280;4395;48.554;8.820;2023-01-25T07:21:51;97175.25;;;1.91;100.00
8717;BME280;4395;48.554;8.820;2023-01-25T07:23:58;97160.31;;;1.98;100.00
8717;BME280;4395;48.554;8.820;2023-01-25T07:26:02;97161.34;;;1.89;100.00
8717;BME280;4395;48.554;8.820;2023-01-25T07:28:05;97156.19;;;1.96;100.00
8717;BME280;4395;48.554;8.820;2023-01-25T07:30:09;97152.69;;;2.03;100.00
8717;BME280;4395;48.554;8.820;2023-01-25T07:32:12;97147.91;;;1.99;100.00
8717;BME280;4395;48.554;8.820;2023-01-25T07:34:15;97153.19;;;1.99;100.00
8717;BME280;4395;48.554;8.820;2023-01-25T07:36:20;97131.69;;;1.85;100.00
8717;BME280;4395;48.554;8.820;2023-01-25T07:38:23;97155.03;;;1.82;100.00
8717;BME280;4395;48.554;8.820;2023-01-25T07:40:26;97127.53;;;1.91;100.00
8717;BME280;4395;48.554;8.820;2023-01-25T07:42:29;97140.94;;;1.89;100.00
8717;BME280;4395;48.554;8.820;2023-01-25T07:44:45;97141.13;;;1.80;100.00
8717;BME280;4395;48.554;8.820;2023-01-25T07:46:48;97140.94;;;1.89;100.00
8717;BME280;4395;48.554;8.820;2023-01-25T07:48:51;97152.56;;;1.64;100.00
8717;BME280;4395;48.554;8.820;2023-01-25T07:50:57;97144.94;;;1.69;100.00
8717;BME280;4395;48.554;8.820;2023-01-25T07:53:14;97145.94;;;1.84;100.00
8717;BME280;4395;48.554;8.820;2023-01-25T07:55:17;97145.25;;;1.82;100.00
8717;BME280;4395;48.554;8.820;2023-01-25T07:57:19;97143.28;;;1.84;100.00
8717;BME280;4395;48.554;8.820;2023-01-25T07:59:23;97135.16;;;1.86;100.00
8717;BME280;4395;48.554;8.820;2023-01-25T08:01:27;97141.75;;;1.98;100.00
8717;BME280;4395;48.554;8.820;2023-01-25T08:03:30;97152.03;;;1.93;100.00
8717;BME280;4395;48.554;8.820;2023-01-25T08:05:32;97136.81;;;1.87;100.00
8717;BME280;4395;48.554;8.820;2023-01-25T08:07:35;97132.16;;;1.89;100.00
8717;BME280;4395;48.554;8.820;2023-01-25T08:09:40;97078.38;;;1.56;100.00
8717;BME280;4395;48.554;8.820;2023-01-25T08:11:43;97144.06;;;2.01;100.00
8717;BME280;4395;48.554;8.820;2023-01-25T08:13:46;97136.63;;;1.97;100.00
8717;BME280;4395;48.554;8.820;2023-01-25T08:15:53;97145.72;;;2.02;100.00
8717;BME280;4395;48.554;8.820;2023-01-25T08:17:58;97139.59;;;2.02;100.00
8717;BME280;4395;48.554;8.820;2023-01-25T08:20:01;97143.75;;;2.04;100.00
8717;BME280;4395;48.554;8.820;2023-01-25T08:22:06;97147.06;;;2.06;100.00
8717;BME280;4395;48.554;8.820;2023-01-25T08:24:09;97154.19;;;2.06;100.00
8717;BME280;4395;48.554;8.820;2023-01-25T08:26:14;97148.22;;;2.04;100.00
8717;BME280;4395;48.554;8.820;2023-01-25T08:28:18;97150.53;;;2.07;100.00
8717;BME280;4395;48.554;8.820;2023-01-25T08:30:21;97140.91;;;2.06;100.00
8717;BME280;4395;48.554;8.820;2023-01-25T08:32:24;97155.31;;;2.11;100.00
8717;BME280;4395;48.554;8.820;2023-01-25T08:34:26;97146.22;;;2.06;100.00
8717;BME280;4395;48.554;8.820;2023-01-25T08:36:32;97139.91;;;2.15;100.00
8717;BME280;4395;48.554;8.820;2023-01-25T08:38:35;97139.06;;;2.14;100.00
8717;BME280;4395;48.554;8.820;2023-01-25T08:40:38;97145.88;;;2.09;100.00
8717;BME280;4395;48.554;8.820;2023-01-25T08:42:42;97152.69;;;2.03;100.00
8717;BME280;4395;48.554;8.820;2023-01-25T08:44:44;97152.69;;;2.03;100.00
8717;BME280;4395;48.554;8.820;2023-01-25T08:46:47;97137.81;;;1.86;100.00
8717;BME280;4395;48.554;8.820;2023-01-25T08:48:52;97131.16;;;1.90;100.00
8717;BME280;4395;48.554;8.820;2023-01-25T08:50:55;97135.13;;;1.94;100.00
8717;BME280;4395;48.554;8.820;2023-01-25T08:52:57;97136.13;;;1.93;100.00
8717;BME280;4395;48.554;8.820;2023-01-25T08:55:00;97130.34;;;1.89;100.00
8717;BME280;4395;48.554;8.820;2023-01-25T08:57:03;97133.00;;;1.81;100.00
8717;BME280;4395;48.554;8.820;2023-01-25T08:59:10;97119.28;;;1.61;100.00
8717;BME280;4395;48.554;8.820;2023-01-25T09:01:14;97127.88;;;1.72;100.00
8717;BME280;4395;48.554;8.820;2023-01-25T09:03:18;97125.38;;;1.86;100.00
8717;BME280;4395;48.554;8.820;2023-01-25T09:05:20;97116.63;;;1.45;100.00
8717;BME280;4395;48.554;8.820;2023-01-25T09:07:23;97121.41;;;1.74;100.00
8717;BME280;4395;48.554;8.820;2023-01-25T09:09:26;97111.94;;;1.88;100.00
8717;BME280;4395;48.554;8.820;2023-01-25T09:11:33;97120.91;;;1.87;100.00
8717;BME280;4395;48.554;8.820;2023-01-25T09:13:37;97103.88;;;1.65;100.00
8717;BME280;4395;48.554;8.820;2023-01-25T09:15:45;97067.59;;;1.57;100.00
8717;BME280;4395;48.554;8.820;2023-01-25T09:17:49;97088.78;;;1.66;100.00
8717;BME280;4395;48.554;8.820;2023-01-25T09:19:52;97111.47;;;1.68;100.00
8717;BME280;4395;48.554;8.820;2023-01-25T09:21:55;97100.66;;;1.94;100.00
8717;BME280;4395;48.554;8.820;2023-01-25T09:23:58;97003.06;;;1.34;100.00
8717;BME280;4395;48.554;8.820;2023-01-25T09:26:10;97109.13;;;1.89;100.00
8717;BME280;4395;48.554;8.820;2023-01-25T09:28:15;97128.53;;;1.82;100.00
8717;BME280;4395;48.554;8.820;2023-01-25T09:30:18;97092.47;;;1.48;100.00
8717;BME280;4395;48.554;8.820;2023-01-25T09:32:30;97107.66;;;1.79;100.00
8717;BME280;4395;48.554;8.820;2023-01-25T09:34:33;97100.34;;;1.97;100.00
8717;BME280;4395;48.554;8.820;2023-01-25T09:36:36;97105.84;;;1.71;100.00
8717;BME280;4395;48.554;8.820;2023-01-25T09:38:39;97078.88;;;1.51;100.00
8717;BME280;4395;48.554;8.820;2023-01-25T09:40:47;97106.00;;;1.78;100.00
8717;BME280;4395;48.554;8.820;2023-01-25T09:43:02;97103.03;;;1.65;100.00
8717;BME280;4395;48.554;8.820;2023-01-25T09:45:15;97092.47;;;1.40;100.00
8717;BME280;4395;48.554;8.820;2023-01-25T09:47:26;97115.28;;;1.82;100.00
8717;BME280;4395;48.554;8.820;2023-01-25T09:49:48;97087.31;;;1.63;100.00
8717;BME280;4395;48.554;8.820;2023-01-25T09:52:09;97106.63;;;1.96;100.00
8717;BME280;4395;48.554;8.820;2023-01-25T09:54:17;97109.63;;;1.85;100.00
8717;BME280;4395;48.554;8.820;2023-01-25T09:56:24;97100.84;;;1.84;100.00
8717;BME280;4395;48.554;8.820;2023-01-25T09:58:31;97110.97;;;1.81;100.00
8717;BME280;4395;48.554;8.820;2023-01-25T10:00:37;97081.50;;;1.59;100.00
8717;BME280;4395;48.554;8.820;2023-01-25T10:02:47;97095.75;;;1.58;100.00
8717;BME280;4395;48.554;8.820;2023-01-25T10:04:57;97104.34;;;1.69;100.00
8717;BME280;4395;48.554;8.820;2023-01-25T10:07:10;97106.19;;;1.44;100.00
8717;BME280;4395;48.554;8.820;2023-01-25T10:09:23;97094.59;;;1.45;100.00
8717;BME280;4395;48.554;8.820;2023-01-25T10:11:30;97109.84;;;1.51;100.00
8717;BME280;4395;48.554;8.820;2023-01-25T10:13:33;97100.06;;;1.51;100.00
8717;BME280;4395;48.554;8.820;2023-01-25T10:15:39;97108.00;;;1.68;100.00
8717;BME280;4395;48.554;8.820;2023-01-25T10:17:42;97104.19;;;1.70;100.00
8717;BME280;4395;48.554;8.820;2023-01-25T10:20:00;97099.41;;;1.49;100.00
8717;BME280;4395;48.554;8.820;2023-01-25T10:22:13;97099.91;;;1.53;100.00
8717;BME280;4395;48.554;8.820;2023-01-25T10:24:33;97110.16;;;1.64;100.00
8717;BME280;4395;48.554;8.820;2023-01-25T10:26:45;97099.72;;;1.79;100.00
8717;BME280;4395;48.554;8.820;2023-01-25T10:28:54;97080.69;;;1.59;100.00
8717;BME280;4395;48.554;8.820;2023-01-25T10:31:01;97099.34;;;1.90;100.00
8717;BME280;4395;48.554;8.820;2023-01-25T10:33:10;97090.41;;;1.91;100.00
8717;BME280;4395;48.554;8.820;2023-01-25T10:35:17;97092.69;;;2.02;100.00
8717;BME280;4395;48.554;8.820;2023-01-25T10:37:36;97008.03;;;1.37;100.00
8717;BME280;4395;48.554;8.820;2023-01-25T10:39:43;96989.16;;;1.32;100.00
8717;BME280;4395;48.554;8.820;2023-01-25T10:41:50;97044.88;;;1.71;100.00
8717;BME280;4395;48.554;8.820;2023-01-25T10:43:56;97077.53;;;1.72;100.00
8717;BME280;4395;48.554;8.820;2023-01-25T10:46:22;97070.03;;;1.91;100.00
8717;BME280;4395;48.554;8.820;2023-01-25T10:48:28;97065.69;;;1.99;100.00
8717;BME280;4395;48.554;8.820;2023-01-25T10:50:49;97063.56;;;1.94;100.00
8717;BME280;4395;48.554;8.820;2023-01-25T10:52:57;97068.50;;;1.97;100.00
8717;BME280;4395;48.554;8.820;2023-01-25T10:55:15;97054.91;;;2.00;100.00
8717;BME280;4395;48.554;8.820;2023-01-25T10:57:20;97034.41;;;1.86;100.00
8717;BME280;4395;48.554;8.820;2023-01-25T10:59:25;97039.34;;;1.97;100.00
8717;BME280;4395;48.554;8.820;2023-01-25T11:01:30;97044.97;;;2.02;100.00
8717;BME280;4395;48.554;8.820;2023-01-25T11:03:36;97030.38;;;2.06;100.00
8717;BME280;4395;48.554;8.820;2023-01-25T11:05:39;97037.66;;;2.04;100.00
8717;BME280;4395;48.554;8.820;2023-01-25T11:07:43;97035.31;;;2.09;100.00
8717;BME280;4395;48.554;8.820;2023-01-25T11:09:46;97031.66;;;2.10;100.00
8717;BME280;4395;48.554;8.820;2023-01-25T11:11:53;97032.03;;;2.07;100.00
8717;BME280;4395;48.554;8.820;2023-01-25T11:13:56;97022.41;;;2.06;100.00
8717;BME280;4395;48.554;8.820;2023-01-25T11:16:15;97036.97;;;2.10;100.00
8717;BME280;4395;48.554;8.820;2023-01-25T11:18:25;97033.94;;;2.21;100.00
8717;BME280;4395;48.554;8.820;2023-01-25T11:20:29;97030.06;;;1.93;100.00
8717;BME280;4395;48.554;8.820;2023-01-25T11:22:31;97034.75;;;1.83;100.00
8717;BME280;4395;48.554;8.820;2023-01-25T11:24:36;97027.75;;;1.98;100.00